LRCL

Cluj-Napoca International Airport

Cluj-Napoca, Romania
TAF LRCL 260200Z 2603/2612 VRB03KT CAVOK
Issued Valid From Valid To
Apr-26 @ 02:00 UTC
(2 hours ago)
Apr-26 @ 03:00 UTC
(48 minutes ago)
Apr-26 @ 12:00 UTC
(in 8 hours)
Apr-26 @ 03:00 to Apr-26 @ 12:00
TAF LRCL 260200Z 2603/2612 VRB03KT CAVOK
Wind Visibility Clouds Conditions
Variable at 3 knots 10,000+ meters
  • No significant clouds
TAF LRCL 260200Z 2603/2612 VRB03KT CAVOK
Issued Apr-26 @ 02:00 UTC
(2 hours ago)
Valid From Apr-26 @ 03:00 UTC
(48 minutes ago)
Valid To Apr-26 @ 12:00 UTC
(in 8 hours)
Apr-26 @ 03:00 - Apr-26 @ 12:00
Wind Visibility
Variable at 3 knots 10,000+ meters
Clouds
  • No significant clouds
Conditions